Terminal Aerodrome Forecast
Issued by NWS

Home | Current Version | Previous Version | Text Only | Print | Product List | Glossary On
Versions: 1 2 3 4 5 6 7 8 9 10 11 12 13 14 15 16 17 18 19
000
FTUS43 KOAX 291700
TAFSNY
TAF
KSNY 291724Z 2918/3018 13013KT P6SM OVC040
     FM292200 09015KT P6SM VCTS OVC040CB
     FM300200 11006KT 5SM -SHRA VCTS SCT025CB BKN040
     FM300900 10008KT P6SM VCSH SCT030 BKN050=

USA.gov is the U.S. government's official web portal to all federal, state and local government web resources and services.